createdAt,value
2019-04-04T00:01:01.636Z,99.90
2019-04-04T00:04:09.253Z,99.90
2019-04-04T00:07:16.732Z,99.90
2019-04-04T00:10:25.538Z,99.90
2019-04-04T00:13:33.656Z,99.90
2019-04-04T00:16:41.230Z,99.90
2019-04-04T00:19:48.724Z,99.90
2019-04-04T00:22:56.226Z,99.90
2019-04-04T00:26:03.733Z,99.90
2019-04-04T00:29:11.292Z,99.90
2019-04-04T00:32:21.105Z,99.90
2019-04-04T00:35:30.761Z,99.90
2019-04-04T00:38:38.544Z,99.90
2019-04-04T00:41:46.289Z,99.90
2019-04-04T00:44:55.626Z,99.90
2019-04-04T00:48:03.944Z,99.90
2019-04-04T00:51:11.511Z,99.90
2019-04-04T00:54:18.969Z,99.90
2019-04-04T00:57:26.499Z,99.90
2019-04-04T01:00:33.929Z,99.90
2019-04-04T01:03:41.503Z,99.90
2019-04-04T01:06:49.573Z,99.90
2019-04-04T01:09:57.064Z,99.90
2019-04-04T01:13:04.787Z,99.90
2019-04-04T01:16:12.362Z,99.90
2019-04-04T01:19:19.838Z,99.90
2019-04-04T01:22:27.367Z,99.90
2019-04-04T01:25:35.019Z,99.90
2019-04-04T01:28:42.500Z,99.90
2019-04-04T01:31:49.993Z,99.90
2019-04-04T01:34:57.538Z,99.90
2019-04-04T01:38:05.157Z,99.90
2019-04-04T01:41:12.595Z,99.90
2019-04-04T01:44:20.215Z,99.90
2019-04-04T01:47:27.727Z,99.90
2019-04-04T01:50:35.345Z,99.90
2019-04-04T01:53:42.801Z,99.90
2019-04-04T01:56:50.269Z,99.90
2019-04-04T01:59:57.875Z,99.90
2019-04-04T02:03:05.400Z,99.90
2019-04-04T02:06:12.993Z,99.90
2019-04-04T02:09:21.041Z,99.90
2019-04-04T02:12:30.477Z,99.90
2019-04-04T02:15:38.047Z,99.90
2019-04-04T02:18:45.672Z,99.90
2019-04-04T02:21:53.227Z,99.90
2019-04-04T02:25:02.755Z,99.90
2019-04-04T02:28:09.941Z,99.90
2019-04-04T02:31:20.611Z,99.90
2019-04-04T02:34:27.191Z,99.90
2019-04-04T02:37:34.768Z,99.90
2019-04-04T02:40:42.387Z,99.90
2019-04-04T02:43:51.060Z,99.90
2019-04-04T02:46:58.565Z,99.90
2019-04-04T02:50:07.566Z,99.90
2019-04-04T02:53:19.386Z,99.90
2019-04-04T02:56:24.238Z,99.90
2019-04-04T02:59:31.699Z,99.90
2019-04-04T03:02:39.213Z,99.90
2019-04-04T03:05:50.963Z,99.90
2019-04-04T03:08:55.986Z,99.90
2019-04-04T03:12:03.536Z,99.90
2019-04-04T03:15:11.246Z,99.90
2019-04-04T03:18:18.806Z,99.90
2019-04-04T03:21:26.334Z,99.90
2019-04-04T03:24:33.810Z,99.90
2019-04-04T03:27:41.360Z,99.90
2019-04-04T03:31:00.846Z,99.90
2019-04-04T03:33:58.246Z,99.90
2019-04-04T03:37:06.558Z,99.90
2019-04-04T03:40:15.069Z,99.90
2019-04-04T03:43:23.590Z,99.90
2019-04-04T03:46:35.878Z,99.90
2019-04-04T03:49:40.455Z,99.90
2019-04-04T03:52:48.177Z,99.90
2019-04-04T03:56:00.211Z,99.90
2019-04-04T03:59:05.942Z,99.90
2019-04-04T04:02:17.822Z,99.90
2019-04-04T04:05:27.332Z,99.90
2019-04-04T04:08:34.877Z,99.90
2019-04-04T04:11:42.508Z,99.90
2019-04-04T04:14:53.863Z,99.90
2019-04-04T04:18:00.072Z,99.90
2019-04-04T04:21:10.951Z,99.90
2019-04-04T04:24:16.732Z,99.90
2019-04-04T04:27:24.526Z,99.90
2019-04-04T04:30:33.327Z,99.90
2019-04-04T04:33:40.980Z,99.90
2019-04-04T04:36:48.686Z,99.90
2019-04-04T04:39:56.140Z,99.90
2019-04-04T04:43:04.848Z,99.90
2019-04-04T04:46:16.909Z,99.90
2019-04-04T04:49:23.327Z,99.90
2019-04-04T04:52:30.604Z,99.90
2019-04-04T04:55:38.107Z,99.90
2019-04-04T04:58:45.591Z,99.90
2019-04-04T05:01:53.047Z,99.90
2019-04-04T05:05:00.571Z,99.90
2019-04-04T05:08:09.878Z,99.90
2019-04-04T05:11:19.103Z,99.90
2019-04-04T05:14:27.804Z,99.90
2019-04-04T05:17:35.673Z,99.90
2019-04-04T05:20:43.138Z,99.90
2019-04-04T05:23:50.771Z,99.90
2019-04-04T05:26:58.371Z,99.90
2019-04-04T05:30:08.363Z,99.90
2019-04-04T05:33:15.871Z,99.90
2019-04-04T05:36:23.492Z,99.90
2019-04-04T05:39:31.061Z,99.90
2019-04-04T05:42:38.927Z,99.90
2019-04-04T05:45:46.423Z,99.90
2019-04-04T05:48:53.943Z,99.90
2019-04-04T05:52:01.481Z,99.90
2019-04-04T05:55:10.919Z,99.90
2019-04-04T05:58:21.576Z,99.90
2019-04-04T06:01:27.397Z,99.90
2019-04-04T06:04:34.882Z,99.90
2019-04-04T06:07:42.444Z,99.90
2019-04-04T06:10:50.247Z,99.90
2019-04-04T06:13:59.122Z,99.90
2019-04-04T06:17:07.857Z,99.90
2019-04-04T06:20:15.715Z,99.90
2019-04-04T06:23:25.097Z,99.90
2019-04-04T06:26:32.411Z,99.90
2019-04-04T06:29:39.887Z,99.90
2019-04-04T06:32:49.194Z,99.90
2019-04-04T06:35:58.138Z,99.90
2019-04-04T06:39:08.223Z,99.90
2019-04-04T06:42:15.822Z,99.90
2019-04-04T06:45:23.337Z,99.90
2019-04-04T06:48:33.857Z,99.90
2019-04-04T06:51:39.950Z,99.90
2019-04-04T06:54:47.400Z,99.90
2019-04-04T06:57:54.922Z,99.90
2019-04-04T07:01:02.580Z,99.90
2019-04-04T07:04:10.123Z,99.90
2019-04-04T07:07:17.720Z,99.90
2019-04-04T07:10:25.377Z,99.90
2019-04-04T07:13:42.121Z,99.90
2019-04-04T07:16:42.189Z,99.90
2019-04-04T07:19:49.755Z,99.90
2019-04-04T07:22:57.479Z,99.90
2019-04-04T07:26:05.537Z,99.90
2019-04-04T07:29:15.205Z,99.90
2019-04-04T07:32:22.707Z,99.90
2019-04-04T07:35:30.300Z,99.90
2019-04-04T07:38:38.073Z,99.90
2019-04-04T07:41:45.636Z,99.80
2019-04-04T07:44:54.710Z,99.00
2019-04-04T07:48:03.546Z,98.10
2019-04-04T07:51:12.313Z,97.00
2019-04-04T07:54:19.807Z,95.80
2019-04-04T07:57:30.007Z,94.50
2019-04-04T08:00:36.604Z,92.50
2019-04-04T08:03:44.401Z,91.90
2019-04-04T08:06:51.919Z,91.00
2019-04-04T08:09:59.575Z,88.40
2019-04-04T08:13:07.130Z,88.00
2019-04-04T08:16:15.725Z,85.30
2019-04-04T08:19:23.230Z,85.60
2019-04-04T08:22:30.668Z,85.20
2019-04-04T08:25:39.122Z,84.30
2019-04-04T08:28:46.673Z,83.60
2019-04-04T08:31:54.256Z,83.20
2019-04-04T08:35:01.838Z,80.80
2019-04-04T08:38:09.500Z,82.60
2019-04-04T08:41:17.043Z,81.60
2019-04-04T08:44:24.515Z,79.40
2019-04-04T08:47:32.039Z,77.50
2019-04-04T08:50:40.012Z,75.20
2019-04-04T08:53:47.609Z,73.20
2019-04-04T08:56:55.193Z,73.10
2019-04-04T09:00:02.832Z,72.20
2019-04-04T09:03:11.894Z,73.80
2019-04-04T09:06:19.968Z,75.90
2019-04-04T09:09:27.513Z,74.00
2019-04-04T09:12:35.000Z,72.70
2019-04-04T09:15:42.722Z,73.50
2019-04-04T09:18:50.202Z,73.00
2019-04-04T09:21:57.684Z,72.20
2019-04-04T09:25:06.225Z,72.10
2019-04-04T09:28:14.794Z,69.70
2019-04-04T09:31:22.323Z,70.30
2019-04-04T09:34:29.848Z,69.40
2019-04-04T09:37:37.404Z,68.60
2019-04-04T09:40:44.947Z,68.50
2019-04-04T09:43:52.444Z,69.60
2019-04-04T09:47:05.497Z,70.20
2019-04-04T09:50:10.296Z,70.40
2019-04-04T09:53:17.735Z,68.90
2019-04-04T09:56:25.597Z,68.80
2019-04-04T09:59:33.066Z,68.10
2019-04-04T10:02:40.551Z,68.40
2019-04-04T10:05:48.644Z,68.00
2019-04-04T10:08:57.336Z,67.70
2019-04-04T10:12:04.796Z,68.20
2019-04-04T10:15:12.997Z,67.60
2019-04-04T10:18:20.574Z,68.10
2019-04-04T10:21:28.191Z,68.60
2019-04-04T10:24:35.710Z,67.10
2019-04-04T10:27:43.236Z,67.70
2019-04-04T10:30:50.868Z,66.70
2019-04-04T10:33:58.482Z,66.00
2019-04-04T10:37:05.942Z,66.00
2019-04-04T10:40:13.722Z,65.90
2019-04-04T10:43:21.302Z,65.50
2019-04-04T10:46:28.878Z,65.30
2019-04-04T10:49:36.583Z,65.20
2019-04-04T10:52:44.235Z,64.80
2019-04-04T10:55:51.841Z,63.70
2019-04-04T10:58:59.462Z,64.30
2019-04-04T11:02:07.602Z,64.00
2019-04-04T11:05:15.357Z,63.90
2019-04-04T11:08:23.030Z,63.40
2019-04-04T11:11:30.502Z,63.20
2019-04-04T11:14:38.092Z,62.70
2019-04-04T11:17:45.802Z,61.80
2019-04-04T11:20:53.446Z,62.20
2019-04-04T11:24:01.014Z,62.80
2019-04-04T11:27:08.590Z,62.50
2019-04-04T11:30:17.266Z,62.40
2019-04-04T11:33:24.874Z,61.40
2019-04-04T11:36:32.430Z,60.50
2019-04-04T11:39:39.992Z,61.00
2019-04-04T11:42:47.636Z,61.10
2019-04-04T11:45:55.085Z,60.20
2019-04-04T11:49:02.570Z,60.60
2019-04-04T11:52:10.076Z,60.80
2019-04-04T11:55:17.592Z,60.40
2019-04-04T11:58:25.082Z,60.90
2019-04-04T12:01:33.623Z,61.10
2019-04-04T12:04:41.084Z,61.50
2019-04-04T12:07:48.514Z,60.10
2019-04-04T12:10:55.991Z,61.20
2019-04-04T12:14:05.398Z,59.10
2019-04-04T12:17:13.009Z,59.50
2019-04-04T12:20:20.614Z,60.10
2019-04-04T12:23:28.183Z,60.50
2019-04-04T12:26:35.776Z,59.70
2019-04-04T12:29:43.304Z,59.30
2019-04-04T12:32:50.780Z,58.80
2019-04-04T12:35:58.314Z,57.80
2019-04-04T12:39:08.786Z,56.70
2019-04-04T12:42:16.388Z,57.30
2019-04-04T12:45:24.271Z,57.80
2019-04-04T12:48:32.574Z,58.70
2019-04-04T12:51:42.272Z,58.50
2019-04-04T12:54:49.806Z,59.10
2019-04-04T12:57:57.328Z,58.60
2019-04-04T13:01:04.841Z,58.00
2019-04-04T13:04:12.316Z,59.00
2019-04-04T13:07:19.764Z,58.80
2019-04-04T13:10:33.387Z,58.90
2019-04-04T13:13:38.371Z,58.90
2019-04-04T13:16:46.595Z,59.70
2019-04-04T13:19:54.376Z,60.50
2019-04-04T13:23:02.697Z,59.70
2019-04-04T13:26:10.826Z,59.90
2019-04-04T13:29:18.501Z,60.30
2019-04-04T13:32:25.988Z,59.80
2019-04-04T13:35:33.436Z,59.70
2019-04-04T13:38:41.074Z,59.70
2019-04-04T13:41:48.663Z,60.50
2019-04-04T13:44:56.191Z,59.90
2019-04-04T13:48:03.704Z,60.30
2019-04-04T13:51:11.215Z,59.80
2019-04-04T13:54:18.806Z,59.60
2019-04-04T13:57:26.429Z,59.90
2019-04-04T14:00:33.987Z,60.00
2019-04-04T14:03:43.219Z,60.10
2019-04-04T14:06:50.807Z,60.50
2019-04-04T14:09:59.516Z,59.90
2019-04-04T14:13:07.010Z,59.10
2019-04-04T14:16:15.738Z,58.80
2019-04-04T14:19:23.500Z,58.60
2019-04-04T14:22:31.079Z,58.10
2019-04-04T14:25:38.549Z,57.70
2019-04-04T14:28:46.069Z,57.60
2019-04-04T14:31:53.641Z,58.50
2019-04-04T14:35:01.902Z,58.30
2019-04-04T14:38:09.561Z,58.10
2019-04-04T14:41:18.141Z,58.50
2019-04-04T14:44:28.032Z,57.70
2019-04-04T14:47:37.039Z,58.10
2019-04-04T14:50:44.890Z,58.50
2019-04-04T14:53:52.465Z,58.60
2019-04-04T14:57:00.138Z,59.10
2019-04-04T15:00:09.454Z,58.00
2019-04-04T15:03:19.244Z,58.20
2019-04-04T15:06:26.849Z,58.40
2019-04-04T15:09:34.561Z,59.00
2019-04-04T15:12:42.102Z,59.30
2019-04-04T15:16:18.545Z,59.10
2019-04-04T15:19:26.624Z,59.50
2019-04-04T15:22:34.125Z,59.60
2019-04-04T15:25:41.634Z,59.10
2019-04-04T15:28:49.596Z,59.50
2019-04-04T15:31:57.168Z,59.70
2019-04-04T15:35:04.847Z,59.40
2019-04-04T15:38:12.456Z,59.40
2019-04-04T15:41:20.443Z,59.90
2019-04-04T15:44:28.163Z,59.90
2019-04-04T15:47:35.774Z,60.20
2019-04-04T15:50:43.467Z,59.70
2019-04-04T15:53:51.361Z,60.20
2019-04-04T15:56:58.981Z,60.40
2019-04-04T16:00:08.289Z,60.60
2019-04-04T16:03:15.997Z,61.30
2019-04-04T16:06:23.639Z,61.30
2019-04-04T16:09:31.168Z,61.60
2019-04-04T16:12:38.765Z,61.10
2019-04-04T16:15:46.416Z,60.80
2019-04-04T16:18:53.960Z,61.50
2019-04-04T16:22:02.736Z,60.30
2019-04-04T16:25:10.421Z,60.40
2019-04-04T16:28:18.027Z,60.90
2019-04-04T16:31:25.701Z,61.80
2019-04-04T16:34:33.398Z,62.40
2019-04-04T16:37:41.144Z,63.00
2019-04-04T16:40:49.141Z,62.60
2019-04-04T16:43:56.807Z,62.00
2019-04-04T16:47:04.646Z,62.60
2019-04-04T16:50:14.042Z,63.50
2019-04-04T16:53:21.651Z,63.60
2019-04-04T16:56:29.404Z,64.10
2019-04-04T16:59:37.198Z,63.50
2019-04-04T17:02:45.375Z,64.00
2019-04-04T17:05:52.875Z,64.30
2019-04-04T17:09:00.559Z,64.60
2019-04-04T17:12:15.077Z,65.50
2019-04-04T17:15:19.359Z,66.20
2019-04-04T17:18:27.004Z,66.70
2019-04-04T17:21:34.983Z,68.20
2019-04-04T17:24:42.754Z,69.10
2019-04-04T17:27:50.224Z,68.80
2019-04-04T17:30:57.902Z,69.70
2019-04-04T17:34:08.934Z,71.00
2019-04-04T17:37:16.646Z,72.20
2019-04-04T17:40:24.207Z,73.10
2019-04-04T17:43:32.378Z,74.20
2019-04-04T17:46:40.103Z,75.50
2019-04-04T17:49:47.945Z,75.60
2019-04-04T17:52:55.596Z,76.70
2019-04-04T17:56:04.057Z,77.50
2019-04-04T17:59:11.748Z,78.30
2019-04-04T18:02:19.350Z,79.60
2019-04-04T18:05:27.119Z,81.20
2019-04-04T18:08:34.714Z,82.60
2019-04-04T18:11:42.381Z,84.10
2019-04-04T18:14:51.307Z,85.00
2019-04-04T18:18:00.474Z,85.60
2019-04-04T18:21:08.389Z,85.80
2019-04-04T18:24:16.109Z,86.50
2019-04-04T18:27:23.818Z,86.60
2019-04-04T18:30:31.465Z,87.10
2019-04-04T18:33:40.294Z,88.10
2019-04-04T18:36:48.521Z,88.90
2019-04-04T18:39:56.072Z,89.60
2019-04-04T18:43:03.729Z,90.10
2019-04-04T18:46:11.265Z,90.40
2019-04-04T18:49:18.942Z,90.60
2019-04-04T18:52:26.599Z,90.80
2019-04-04T18:55:34.198Z,90.90
2019-04-04T18:58:41.797Z,90.80
2019-04-04T19:01:52.092Z,91.20
2019-04-04T19:04:59.613Z,91.40
2019-04-04T19:08:07.189Z,91.60
2019-04-04T19:11:14.692Z,91.60
2019-04-04T19:14:22.292Z,91.90
2019-04-04T19:17:29.749Z,91.90
2019-04-04T19:20:37.539Z,91.90
2019-04-04T19:23:49.489Z,92.40
2019-04-04T19:26:54.415Z,92.40
2019-04-04T19:30:02.028Z,92.50
2019-04-04T19:33:09.581Z,92.80
2019-04-04T19:36:17.238Z,93.20
2019-04-04T19:39:25.095Z,93.50
2019-04-04T19:42:32.663Z,93.80
2019-04-04T19:45:40.285Z,94.00
2019-04-04T19:48:48.448Z,94.40
2019-04-04T19:51:56.065Z,94.50
2019-04-04T19:55:03.934Z,94.80
2019-04-04T19:58:13.205Z,95.10
2019-04-04T20:01:20.795Z,95.30
2019-04-04T20:04:28.382Z,95.70
2019-04-04T20:07:36.315Z,95.60
2019-04-04T20:10:43.869Z,95.70
2019-04-04T20:13:51.941Z,96.10
2019-04-04T20:17:00.813Z,96.40
2019-04-04T20:20:09.564Z,96.70
2019-04-04T20:23:17.351Z,97.00
2019-04-04T20:26:25.045Z,97.30
2019-04-04T20:29:32.761Z,97.60
2019-04-04T20:32:40.369Z,97.80
2019-04-04T20:35:48.333Z,97.90
2019-04-04T20:38:55.779Z,98.30
2019-04-04T20:42:03.451Z,98.50
2019-04-04T20:45:11.193Z,98.70
2019-04-04T20:48:18.721Z,98.80
2019-04-04T20:51:26.286Z,99.10
2019-04-04T20:54:33.955Z,99.10
2019-04-04T20:57:41.573Z,99.40
2019-04-04T21:00:49.114Z,99.20
2019-04-04T21:03:56.776Z,99.20
2019-04-04T21:07:04.361Z,99.50
2019-04-04T21:10:12.367Z,99.40
2019-04-04T21:13:19.995Z,99.30
2019-04-04T21:16:27.580Z,99.40
2019-04-04T21:19:35.171Z,99.50
2019-04-04T21:22:42.642Z,99.50
2019-04-04T21:25:50.165Z,99.60
2019-04-04T21:28:57.659Z,99.80
2019-04-04T21:32:05.231Z,99.60
2019-04-04T21:35:14.442Z,99.80
2019-04-04T21:38:21.973Z,99.80
2019-04-04T21:41:29.453Z,99.90
2019-04-04T21:44:36.995Z,99.60
2019-04-04T21:47:44.477Z,99.70
2019-04-04T21:50:52.045Z,99.80
2019-04-04T21:53:59.625Z,99.90
2019-04-04T21:57:07.141Z,99.90
2019-04-04T22:00:14.747Z,99.90
2019-04-04T22:03:23.970Z,99.90
2019-04-04T22:06:31.437Z,99.90
2019-04-04T22:09:38.933Z,99.90
2019-04-04T22:12:46.441Z,99.90
2019-04-04T22:15:54.007Z,99.90
2019-04-04T22:19:01.586Z,99.90
2019-04-04T22:22:09.291Z,99.90
2019-04-04T22:25:16.737Z,99.90
2019-04-04T22:28:24.220Z,99.90
2019-04-04T22:31:31.708Z,99.90
2019-04-04T22:34:39.231Z,99.90
2019-04-04T22:37:46.727Z,99.90
2019-04-04T22:40:54.228Z,99.90
2019-04-04T22:44:03.820Z,99.90
2019-04-04T22:47:12.613Z,99.90
2019-04-04T22:50:20.118Z,99.90
2019-04-04T22:53:27.673Z,99.90
2019-04-04T22:56:35.265Z,99.90
2019-04-04T22:59:42.738Z,99.90
2019-04-04T23:02:50.281Z,99.90
2019-04-04T23:05:57.791Z,99.90
2019-04-04T23:09:08.215Z,99.90
2019-04-04T23:12:15.859Z,99.90
2019-04-04T23:15:23.333Z,99.90
2019-04-04T23:18:30.787Z,99.90
2019-04-04T23:21:40.103Z,99.90
2019-04-04T23:24:47.710Z,99.90
2019-04-04T23:27:55.281Z,99.90
2019-04-04T23:31:02.759Z,99.90
2019-04-04T23:34:10.288Z,99.90
2019-04-04T23:37:17.789Z,99.90
2019-04-04T23:40:25.287Z,99.90
2019-04-04T23:43:32.794Z,99.90
2019-04-04T23:46:40.309Z,99.90
2019-04-04T23:49:47.763Z,99.90
2019-04-04T23:52:55.321Z,99.90
2019-04-04T23:56:03.124Z,99.90
2019-04-04T23:59:10.795Z,99.90
